Time;durP1;ratioP1;P1;durP2;ratioP2;P2;SDS_P1;SDS_P2;PMS_P1;PMS_P2;Temp;Humidity;BMP_temperature;BMP_pressure;BME280_temperature;BME280_humidity;BME280_pressure;Samples;Min_cycle;Max_cycle;Signal;HPM_P1;HPM_P2
2022/05/25 00:00:10;;;;;;;19.37;18.23;;;13.30;99.90;;;;;;6193788;23;20419;-81
2022/05/25 00:02:39;;;;;;;17.37;16.37;;;13.30;99.90;;;;;;6220647;23;20426;-81
2022/05/25 00:05:10;;;;;;;20.00;18.90;;;13.30;99.90;;;;;;6230632;23;20402;-81
2022/05/25 00:07:38;;;;;;;19.67;18.57;;;13.30;99.90;;;;;;6230510;23;20375;-81
2022/05/25 00:10:07;;;;;;;20.80;19.70;;;13.30;99.90;;;;;;6192710;23;20885;-81
2022/05/25 00:12:35;;;;;;;21.43;20.33;;;13.30;99.90;;;;;;6229768;23;20418;-81
2022/05/25 00:15:09;;;;;;;22.93;21.77;;;13.30;99.90;;;;;;6192669;23;20552;-81
2022/05/25 00:17:37;;;;;;;24.97;23.73;;;13.30;99.90;;;;;;6230390;23;20387;-81
2022/05/25 00:20:06;;;;;;;23.03;21.70;;;13.30;99.90;;;;;;6229408;23;20973;-81
2022/05/25 00:22:47;;;;;;;25.13;24.00;;;13.20;99.90;;;;;;6219972;23;20435;-81
2022/05/25 00:25:18;;;;;;;23.60;22.50;;;13.20;99.90;;;;;;6193087;23;20505;-81
2022/05/25 00:27:47;;;;;;;25.67;24.47;;;13.20;99.90;;;;;;6229692;23;20383;-81
2022/05/25 00:30:18;;;;;;;26.90;25.70;;;13.20;99.90;;;;;;6192539;23;20517;-81
2022/05/25 00:32:47;;;;;;;26.97;25.67;;;13.20;99.90;;;;;;6217541;23;20846;-81
2022/05/25 00:35:18;;;;;;;25.87;24.67;;;13.20;99.90;;;;;;6229862;23;20422;-81
2022/05/25 00:37:46;;;;;;;25.70;24.50;;;13.20;99.90;;;;;;6230314;23;20375;-81
2022/05/25 00:40:18;;;;;;;25.40;24.17;;;13.20;99.90;;;;;;6192920;23;20509;-81
2022/05/25 00:42:46;;;;;;;26.03;24.83;;;13.20;99.90;;;;;;6220140;23;20457;-81
2022/05/25 00:45:16;;;;;;;28.50;27.13;;;13.10;99.90;;;;;;6229612;23;20453;-81
2022/05/25 00:47:48;;;;;;;26.03;24.83;;;13.10;99.90;;;;;;6230318;23;20375;-81
2022/05/25 00:50:20;;;;;;;27.50;26.20;;;13.10;99.90;;;;;;6192911;23;20453;-81
2022/05/25 00:52:50;;;;;;;24.77;23.57;;;13.00;99.90;;;;;;6220187;23;20433;-81
2022/05/25 00:55:27;;;;;;;24.77;23.47;;;13.00;99.90;;;;;;6192611;23;20838;-81
2022/05/25 00:57:59;;;;;;;25.43;24.23;;;13.00;99.90;;;;;;6220249;23;20485;-80
2022/05/25 01:00:31;;;;;;;29.70;28.03;;;12.90;99.90;;;;;;6192621;23;20526;-81
2022/05/25 01:03:01;;;;;;;22.50;21.20;;;12.90;99.90;;;;;;6229184;23;20426;-81
2022/05/25 01:05:38;;;;;;;22.27;21.17;;;12.90;99.90;;;;;;6192468;23;20421;-81
2022/05/25 01:08:21;;;;;;;22.90;21.80;;;12.90;99.90;;;;;;6192177;23;20944;-81
2022/05/25 01:11:05;;;;;;;22.77;21.47;;;12.80;99.90;;;;;;6229207;23;20711;-81
2022/05/25 01:13:39;;;;;;;24.60;23.40;;;12.80;99.90;;;;;;6192039;23;20426;-81
2022/05/25 01:16:18;;;;;;;24.33;23.20;;;12.80;99.90;;;;;;6191615;23;20434;-81
2022/05/25 01:18:52;;;;;;;25.20;24.00;;;12.70;99.90;;;;;;6192256;23;20423;-81
2022/05/25 01:21:26;;;;;;;21.97;20.77;;;12.70;99.90;;;;;;6192143;23;20789;-81
2022/05/25 01:24:03;;;;;;;21.63;20.50;;;12.70;99.90;;;;;;6191776;23;20509;-81
2022/05/25 01:27:04;;;;;;;23.63;22.33;;;12.60;99.90;;;;;;6191676;23;20495;-81
2022/05/25 01:30:03;;;;;;;24.07;22.87;;;12.60;99.90;;;;;;6191924;23;20480;-81
2022/05/25 01:32:42;;;;;;;24.13;22.73;;;12.60;99.90;;;;;;6193424;23;20426;-81
2022/05/25 01:35:21;;;;;;;23.97;22.77;;;12.50;99.90;;;;;;6221038;23;20426;-81
2022/05/25 01:37:55;;;;;;;27.60;26.10;;;12.50;99.90;;;;;;6221355;23;20390;-81
2022/05/25 01:40:31;;;;;;;26.60;25.20;;;12.50;99.90;;;;;;6194990;23;20433;-81
2022/05/25 01:43:05;;;;;;;30.57;29.10;;;12.50;99.90;;;;;;6194165;23;20925;-81
2022/05/25 01:45:40;;;;;;;26.43;25.07;;;12.40;99.90;;;;;;6193290;23;20414;-81
2022/05/25 01:48:11;;;;;;;30.10;28.70;;;12.40;99.90;;;;;;6219599;23;20464;-81
2022/05/25 01:50:45;;;;;;;30.97;29.47;;;12.40;99.90;;;;;;6192646;23;20445;-81
2022/05/25 01:53:16;;;;;;;27.93;26.57;;;12.40;99.90;;;;;;6219302;23;20426;-81
2022/05/25 01:55:48;;;;;;;30.37;28.73;;;12.30;99.90;;;;;;6192539;23;20984;-81
2022/05/25 01:58:19;;;;;;;29.77;28.27;;;12.30;99.90;;;;;;6193357;23;20417;-81
2022/05/25 02:00:51;;;;;;;29.93;28.50;;;12.30;99.90;;;;;;6229608;23;20819;-81
2022/05/25 02:06:41;;;;;;;31.53;29.93;;;12.20;99.90;;;;;;6194747;23;20406;-79
2022/05/25 02:09:30;;;;;;;28.27;26.70;;;12.20;99.90;;;;;;6060512;23;20502;-79
2022/05/25 02:12:05;;;;;;;30.33;28.73;;;12.10;99.90;;;;;;6216787;23;20807;-81
2022/05/25 02:14:44;;;;;;;27.90;26.40;;;12.10;99.90;;;;;;6192736;23;20433;-81
2022/05/25 02:17:23;;;;;;;25.20;23.60;;;12.20;99.90;;;;;;6192925;23;20395;-81
2022/05/25 02:19:58;;;;;;;19.77;18.40;;;12.10;99.90;;;;;;6193528;23;20410;-81
2022/05/25 02:22:36;;;;;;;24.67;23.23;;;12.10;99.90;;;;;;6219397;23;20458;-81
2022/05/25 02:25:09;;;;;;;23.43;22.03;;;12.10;99.90;;;;;;6194927;23;20430;-81
2022/05/25 02:27:42;;;;;;;22.57;21.27;;;12.00;99.90;;;;;;6194479;23;20422;-81
2022/05/25 02:30:16;;;;;;;25.13;23.70;;;12.00;99.90;;;;;;6194364;23;20744;-81
2022/05/25 02:32:52;;;;;;;24.43;23.00;;;12.00;99.90;;;;;;6194294;23;20440;-81
2022/05/25 02:35:22;;;;;;;24.37;22.87;;;12.00;99.90;;;;;;6218986;23;20520;-81
2022/05/25 02:37:52;;;;;;;27.40;25.80;;;11.90;99.90;;;;;;6193983;23;20411;-81
2022/05/25 02:40:21;;;;;;;24.37;22.77;;;11.90;99.90;;;;;;6193792;23;20422;-81
2022/05/25 02:42:49;;;;;;;25.07;23.47;;;11.90;99.90;;;;;;6223536;23;20426;-80
2022/05/25 02:45:17;;;;;;;26.00;24.40;;;11.90;99.90;;;;;;6197455;23;20482;-81
2022/05/25 02:47:46;;;;;;;25.77;24.17;;;11.80;99.90;;;;;;6233800;23;20409;-82
2022/05/25 02:50:15;;;;;;;27.17;25.57;;;11.80;99.90;;;;;;6197151;23;20490;-81
2022/05/25 02:52:43;;;;;;;27.47;25.87;;;11.80;99.90;;;;;;6224408;23;20510;-81
2022/05/25 02:55:11;;;;;;;25.40;23.90;;;11.80;99.90;;;;;;6197715;23;20466;-81
2022/05/25 02:57:39;;;;;;;26.57;24.87;;;11.80;99.90;;;;;;6197618;23;20415;-81
2022/05/25 03:00:10;;;;;;;26.17;24.47;;;11.80;99.90;;;;;;6224619;23;20418;-81
2022/05/25 03:02:38;;;;;;;25.93;24.23;;;11.70;99.90;;;;;;6195461;23;20435;-79
2022/05/25 03:05:10;;;;;;;27.03;25.30;;;11.70;99.90;;;;;;6195066;23;20418;-79
2022/05/25 03:07:39;;;;;;;27.10;25.40;;;11.70;99.90;;;;;;6195455;23;20418;-80
2022/05/25 03:10:08;;;;;;;29.77;28.07;;;11.70;99.90;;;;;;6197286;23;20829;-81
2022/05/25 03:12:36;;;;;;;26.77;25.07;;;11.70;99.90;;;;;;6195241;23;20442;-79
2022/05/25 03:15:05;;;;;;;29.23;27.40;;;11.60;99.90;;;;;;6194179;23;20439;-79
2022/05/25 03:17:33;;;;;;;28.73;27.10;;;11.70;99.90;;;;;;6193964;23;20411;-79
2022/05/25 03:20:01;;;;;;;29.97;28.07;;;11.60;99.90;;;;;;6194078;23;20472;-79
2022/05/25 03:22:34;;;;;;;29.87;28.07;;;11.60;99.90;;;;;;6193845;23;20445;-80
2022/05/25 03:25:02;;;;;;;29.67;27.80;;;11.60;99.90;;;;;;6194109;23;20415;-79
2022/05/25 03:27:30;;;;;;;31.30;29.50;;;11.60;99.90;;;;;;6194483;23;20440;-79
2022/05/25 03:29:59;;;;;;;28.57;26.87;;;11.60;99.90;;;;;;6194164;23;20419;-79
2022/05/25 03:32:27;;;;;;;26.63;25.03;;;11.60;99.90;;;;;;6194015;23;20430;-79
2022/05/25 03:34:57;;;;;;;27.17;25.37;;;11.60;99.90;;;;;;6230819;23;20401;-79
2022/05/25 03:37:25;;;;;;;26.60;25.00;;;11.50;99.90;;;;;;6193857;23;20501;-79
2022/05/25 03:39:55;;;;;;;28.40;26.60;;;11.50;99.90;;;;;;6193815;23;20500;-80
2022/05/25 03:42:24;;;;;;;28.13;26.23;;;11.50;99.90;;;;;;6195270;23;20803;-81
2022/05/25 03:44:52;;;;;;;26.10;24.50;;;11.50;99.90;;;;;;6194668;23;20921;-80
2022/05/25 03:47:20;;;;;;;26.23;24.47;;;11.50;99.90;;;;;;6195016;23;20493;-81
2022/05/25 03:49:48;;;;;;;27.50;25.50;;;11.50;99.90;;;;;;6222695;23;20407;-81
2022/05/25 03:52:21;;;;;;;26.53;24.80;;;11.50;99.90;;;;;;6222216;23;20438;-81
2022/05/25 03:54:49;;;;;;;26.90;25.07;;;11.50;99.90;;;;;;6195040;23;20414;-81
2022/05/25 03:57:19;;;;;;;30.10;28.20;;;11.50;99.90;;;;;;6231841;23;20521;-81
2022/05/25 03:59:47;;;;;;;29.73;27.93;;;11.50;99.90;;;;;;6194254;23;20518;-81
2022/05/25 04:02:17;;;;;;;31.33;29.33;;;11.50;99.90;;;;;;6194987;23;20439;-81
2022/05/25 04:04:45;;;;;;;30.60;28.63;;;11.40;99.90;;;;;;6194676;23;20469;-81
2022/05/25 04:07:13;;;;;;;31.67;29.77;;;11.40;99.90;;;;;;6231040;23;20403;-81
2022/05/25 04:09:41;;;;;;;29.00;27.20;;;11.50;99.90;;;;;;6194346;23;20422;-81
2022/05/25 04:12:10;;;;;;;25.50;23.90;;;11.40;99.90;;;;;;6194195;23;20936;-80
2022/05/25 04:14:40;;;;;;;28.07;26.30;;;11.40;99.90;;;;;;6229695;23;20433;-79
2022/05/25 04:17:08;;;;;;;26.73;24.83;;;11.40;99.90;;;;;;6195408;23;20458;-80
2022/05/25 04:19:38;;;;;;;23.93;22.30;;;11.50;99.90;;;;;;6231423;23;20402;-79
2022/05/25 04:22:07;;;;;;;26.73;25.00;;;11.40;99.90;;;;;;6232310;23;20814;-80
2022/05/25 04:24:35;;;;;;;24.90;23.20;;;11.50;99.90;;;;;;6194251;23;20886;-80
2022/05/25 04:27:04;;;;;;;27.20;25.30;;;11.50;99.90;;;;;;6194575;23;20426;-80
2022/05/25 04:29:32;;;;;;;27.70;25.90;;;11.50;99.90;;;;;;6194404;23;20453;-80
2022/05/25 04:32:01;;;;;;;25.10;23.30;;;11.50;99.90;;;;;;6194244;23;20742;-80
2022/05/25 04:34:30;;;;;;;24.73;22.83;;;11.50;99.90;;;;;;6193716;23;20929;-80
2022/05/25 04:37:48;;;;;;;26.40;24.60;;;11.50;99.90;;;;;;6193783;23;20431;-80
2022/05/25 04:39:47;;;;;;;27.70;25.70;;;11.50;99.90;;;;;;6203865;23;20465;-80
2022/05/25 04:42:16;;;;;;;26.70;24.90;;;11.50;99.90;;;;;;6193322;23;20517;-80
2022/05/25 04:44:44;;;;;;;27.93;25.93;;;11.60;99.90;;;;;;6194174;23;20823;-80
2022/05/25 04:47:14;;;;;;;28.43;26.33;;;11.60;99.90;;;;;;6194431;23;20431;-80
2022/05/25 04:49:44;;;;;;;28.07;26.20;;;11.60;99.90;;;;;;6231029;23;20402;-80
2022/05/25 04:52:13;;;;;;;28.10;26.30;;;11.60;99.90;;;;;;6194581;23;20430;-80
2022/05/25 04:54:41;;;;;;;25.40;23.70;;;11.60;99.90;;;;;;6231570;23;20894;-80
2022/05/25 04:57:20;;;;;;;27.00;25.10;;;11.60;99.90;;;;;;6229886;23;20423;-80
2022/05/25 04:59:49;;;;;;;25.37;23.57;;;11.70;99.90;;;;;;6220622;23;20415;-80
2022/05/25 05:02:20;;;;;;;27.27;25.37;;;11.70;99.90;;;;;;6194408;23;20506;-80
2022/05/25 05:04:49;;;;;;;26.07;24.27;;;11.70;99.90;;;;;;6220482;23;20389;-79
2022/05/25 05:07:17;;;;;;;26.90;24.87;;;11.70;99.90;;;;;;6194089;23;20410;-80
2022/05/25 05:09:47;;;;;;;24.73;22.93;;;11.80;99.90;;;;;;6195131;23;20940;-79
2022/05/25 05:12:16;;;;;;;24.27;22.53;;;11.80;99.90;;;;;;6231919;23;20422;-80
2022/05/25 05:14:45;;;;;;;26.57;24.57;;;11.80;99.90;;;;;;6194954;23;20799;-80
2022/05/25 05:17:13;;;;;;;27.97;25.97;;;11.90;99.90;;;;;;6232174;23;20465;-79
2022/05/25 05:20:11;;;;;;;28.03;25.80;;;11.80;99.90;;;;;;6196941;23;20434;-80
2022/05/25 05:22:39;;;;;;;28.30;26.10;;;11.90;99.90;;;;;;6195592;23;20754;-80
2022/05/25 05:25:08;;;;;;;25.90;24.00;;;12.00;99.90;;;;;;6223088;23;20395;-80
2022/05/25 05:27:36;;;;;;;20.80;19.20;;;12.00;99.90;;;;;;6194916;23;20473;-80
2022/05/25 05:30:08;;;;;;;26.67;24.87;;;12.10;99.90;;;;;;6231974;23;20395;-80
2022/05/25 05:32:36;;;;;;;26.43;24.53;;;12.10;99.90;;;;;;6195641;23;20431;-80
2022/05/25 05:35:05;;;;;;;25.17;23.33;;;12.20;99.90;;;;;;6196044;23;20414;-80
2022/05/25 05:37:37;;;;;;;26.97;24.87;;;12.30;99.90;;;;;;6199187;23;20442;-80
2022/05/25 05:40:09;;;;;;;24.57;22.87;;;12.50;99.90;;;;;;6199094;23;20472;-80
2022/05/25 05:42:39;;;;;;;24.70;22.90;;;12.60;99.90;;;;;;6198392;23;20477;-80
2022/05/25 05:45:11;;;;;;;25.07;23.17;;;12.80;99.90;;;;;;6200059;23;20407;-80
2022/05/25 05:47:43;;;;;;;25.57;23.53;;;13.00;99.90;;;;;;6197830;23;20514;-80
2022/05/25 05:50:12;;;;;;;22.90;21.20;;;13.30;99.90;;;;;;6196610;23;20501;-79
2022/05/25 05:52:42;;;;;;;22.27;20.67;;;13.50;99.90;;;;;;6234148;23;20414;-79
2022/05/25 05:55:11;;;;;;;26.00;24.10;;;13.80;99.90;;;;;;6196453;23;20441;-80
2022/05/25 05:57:39;;;;;;;23.87;22.17;;;14.00;99.90;;;;;;6195959;23;20502;-79
2022/05/25 06:00:10;;;;;;;21.90;20.40;;;14.30;99.90;;;;;;6197973;23;20422;-80
2022/05/25 06:02:40;;;;;;;21.80;20.17;;;14.60;99.90;;;;;;6234174;23;20453;-80
2022/05/25 06:05:09;;;;;;;21.17;19.47;;;14.90;99.90;;;;;;6196397;23;20418;-80
2022/05/25 06:07:38;;;;;;;22.90;21.20;;;15.20;99.90;;;;;;6196551;23;20414;-80
2022/05/25 06:10:09;;;;;;;23.70;21.90;;;15.40;99.90;;;;;;6196818;23;20393;-80
2022/05/25 06:12:44;;;;;;;20.80;19.00;;;15.60;99.90;;;;;;6197777;23;20409;-79
2022/05/25 06:20:48;;;;;;;22.23;20.63;;;16.30;99.90;;;;;;6196465;23;20399;-80
2022/05/25 06:23:17;;;;;;;21.17;19.57;;;16.50;99.90;;;;;;6223527;23;20771;-80
2022/05/25 06:25:46;;;;;;;19.90;18.43;;;16.60;99.90;;;;;;6224919;23;20472;-80
2022/05/25 06:28:14;;;;;;;18.80;17.50;;;16.80;99.90;;;;;;6196923;23;20432;-81
2022/05/25 06:30:43;;;;;;;21.33;19.77;;;17.10;99.90;;;;;;6196539;23;20377;-80
2022/05/25 06:33:11;;;;;;;18.53;17.20;;;17.10;99.90;;;;;;6196211;23;20470;-80
2022/05/25 06:35:39;;;;;;;21.23;19.73;;;17.30;99.90;;;;;;6233510;23;20502;-80
2022/05/25 06:38:07;;;;;;;17.87;16.47;;;17.40;99.90;;;;;;6233235;23;20401;-81
2022/05/25 06:40:36;;;;;;;19.40;17.83;;;17.60;99.90;;;;;;6196703;23;20473;-80
2022/05/25 06:43:06;;;;;;;19.97;18.57;;;17.80;99.90;;;;;;6197009;23;20417;-81
2022/05/25 06:45:34;;;;;;;20.13;18.53;;;17.80;99.90;;;;;;6197318;23;20418;-81
2022/05/25 06:48:04;;;;;;;20.87;19.13;;;17.90;99.90;;;;;;6223600;23;20917;-83
2022/05/25 06:50:32;;;;;;;18.57;17.27;;;18.00;99.90;;;;;;6196342;23;20410;-81
2022/05/25 06:53:00;;;;;;;19.60;18.10;;;18.10;99.90;;;;;;6199323;23;20438;-82
2022/05/25 06:55:28;;;;;;;19.40;17.93;;;18.20;99.90;;;;;;6198953;23;20418;-81
2022/05/25 06:57:57;;;;;;;20.53;18.77;;;18.40;99.90;;;;;;6224327;23;20493;-81
2022/05/25 07:00:26;;;;;;;18.63;17.23;;;18.50;99.90;;;;;;6196583;23;20761;-82
2022/05/25 07:02:55;;;;;;;17.57;16.37;;;18.70;99.90;;;;;;6221130;23;20917;-82
2022/05/25 07:05:23;;;;;;;18.30;16.83;;;18.80;99.90;;;;;;6193329;23;20890;-82
2022/05/25 07:07:51;;;;;;;18.43;17.03;;;18.90;99.90;;;;;;6194363;23;20410;-82
2022/05/25 07:10:20;;;;;;;18.43;17.13;;;19.10;99.90;;;;;;6194644;23;20414;-82
2022/05/25 07:12:49;;;;;;;19.00;17.63;;;19.20;99.90;;;;;;6221778;23;20433;-82
2022/05/25 07:15:17;;;;;;;18.83;17.43;;;19.30;99.90;;;;;;6231223;23;20399;-82
2022/05/25 07:17:48;;;;;;;18.40;16.90;;;19.40;99.90;;;;;;6195237;23;20497;-81
2022/05/25 07:20:16;;;;;;;17.23;16.00;;;19.50;99.90;;;;;;6231946;23;20380;-81
2022/05/25 07:22:44;;;;;;;16.37;15.17;;;19.60;99.90;;;;;;6195211;23;20441;-81
2022/05/25 07:25:13;;;;;;;18.27;17.07;;;19.60;99.90;;;;;;6221387;23;20481;-80
2022/05/25 07:27:41;;;;;;;18.70;17.50;;;19.70;99.90;;;;;;6234067;23;20407;-81
2022/05/25 07:30:10;;;;;;;17.23;16.13;;;19.70;99.90;;;;;;6196413;23;20418;-82
2022/05/25 07:32:38;;;;;;;18.07;16.97;;;19.80;99.90;;;;;;6195401;23;20431;-81
2022/05/25 07:35:10;;;;;;;18.47;17.27;;;19.90;99.70;;;;;;6195604;23;20422;-81
2022/05/25 07:37:41;;;;;;;18.83;17.53;;;19.70;99.20;;;;;;6195121;23;20422;-82
2022/05/25 07:40:13;;;;;;;18.17;17.10;;;19.80;99.10;;;;;;6232148;23;20429;-81
2022/05/25 07:42:45;;;;;;;17.47;16.37;;;19.70;98.80;;;;;;6193630;23;20449;-80
2022/05/25 07:45:14;;;;;;;16.37;15.33;;;19.60;98.60;;;;;;6230615;23;20419;-81
2022/05/25 07:47:42;;;;;;;15.30;14.30;;;19.50;98.50;;;;;;6196540;23;20429;-84
2022/05/25 07:50:12;;;;;;;18.43;17.37;;;19.50;98.50;;;;;;6198507;23;20920;-81
2022/05/25 07:52:41;;;;;;;16.60;15.40;;;19.60;98.30;;;;;;6227762;23;20430;-81
2022/05/25 07:55:12;;;;;;;16.90;15.80;;;19.70;98.10;;;;;;6199207;23;20414;-82
2022/05/25 07:57:41;;;;;;;17.13;16.03;;;19.70;98.00;;;;;;6200844;23;20430;-83
2022/05/25 08:00:10;;;;;;;14.83;13.93;;;19.60;97.60;;;;;;6203132;23;20418;-83
2022/05/25 08:05:47;;;;;;;16.53;15.53;;;19.70;97.30;;;;;;6198765;23;20461;-81
2022/05/25 08:08:18;;;;;;;16.20;15.10;;;19.80;97.20;;;;;;6198972;23;20461;-81
2022/05/25 08:10:51;;;;;;;16.17;15.17;;;19.80;97.10;;;;;;6236292;23;20399;-81
2022/05/25 08:13:21;;;;;;;16.07;15.17;;;19.90;96.90;;;;;;6199634;23;20520;-80
2022/05/25 08:15:49;;;;;;;16.30;15.30;;;20.00;96.80;;;;;;6199216;23;20406;-79
2022/05/25 08:18:19;;;;;;;16.03;15.03;;;20.10;96.60;;;;;;6237197;23;20426;-80
2022/05/25 08:20:48;;;;;;;15.70;14.80;;;20.20;96.60;;;;;;6235549;23;20399;-80
2022/05/25 08:23:18;;;;;;;14.87;13.87;;;20.40;96.40;;;;;;6199511;23;20933;-81
2022/05/25 08:25:46;;;;;;;15.57;14.43;;;20.40;96.20;;;;;;6200101;23;20445;-81
2022/05/25 08:28:15;;;;;;;17.77;16.57;;;20.50;96.20;;;;;;6200127;23;20489;-81
2022/05/25 08:30:45;;;;;;;13.93;12.97;;;20.70;96.20;;;;;;6200149;23;20438;-78
2022/05/25 08:33:18;;;;;;;15.00;13.90;;;20.80;95.90;;;;;;6196027;23;20445;-83
2022/05/25 08:35:48;;;;;;;16.23;15.10;;;20.90;95.80;;;;;;6197613;23;20418;-82
2022/05/25 08:38:21;;;;;;;15.80;14.80;;;20.90;95.60;;;;;;6200461;23;20438;-82
2022/05/25 08:40:51;;;;;;;14.97;13.97;;;20.90;95.50;;;;;;6200053;23;20410;-82
2022/05/25 08:43:24;;;;;;;15.43;14.43;;;20.70;95.30;;;;;;6223563;23;20510;-83
2022/05/25 08:45:57;;;;;;;15.00;14.00;;;20.70;95.30;;;;;;6197775;23;20417;-83
2022/05/25 08:48:27;;;;;;;17.60;16.40;;;20.60;95.30;;;;;;6196989;23;20910;-85
2022/05/25 08:51:01;;;;;;;14.87;13.77;;;20.50;94.90;;;;;;6198358;23;20414;-83
2022/05/25 08:53:33;;;;;;;15.20;14.27;;;20.50;94.90;;;;;;6223524;23;20506;-83
2022/05/25 08:56:10;;;;;;;14.47;13.67;;;20.60;95.00;;;;;;6196269;23;20419;-83
2022/05/25 08:58:45;;;;;;;15.43;14.50;;;20.70;95.00;;;;;;6234398;23;20410;-81
2022/05/25 09:01:21;;;;;;;13.57;12.77;;;20.80;94.80;;;;;;6197633;23;20513;-83
2022/05/25 09:03:55;;;;;;;13.80;13.00;;;20.90;94.70;;;;;;6221290;23;20505;-83
2022/05/25 09:06:34;;;;;;;11.87;11.17;;;21.00;94.60;;;;;;6196890;23;20445;-82
2022/05/25 09:09:07;;;;;;;12.80;11.93;;;21.20;94.40;;;;;;6197422;23;20403;-82
2022/05/25 09:11:41;;;;;;;13.33;12.53;;;21.30;94.30;;;;;;6196061;23;20501;-80
2022/05/25 09:14:18;;;;;;;13.90;13.00;;;21.40;94.00;;;;;;6196024;23;20437;-81
2022/05/25 09:16:51;;;;;;;13.23;12.43;;;21.50;93.40;;;;;;6193594;23;20410;-82
2022/05/25 09:19:23;;;;;;;13.37;12.57;;;21.50;93.20;;;;;;6193479;23;20434;-82
2022/05/25 09:21:56;;;;;;;12.30;11.60;;;21.50;93.40;;;;;;6230514;23;20379;-82
2022/05/25 09:24:27;;;;;;;11.93;11.23;;;21.50;92.90;;;;;;6195010;23;20429;-81
2022/05/25 09:26:56;;;;;;;12.80;12.00;;;21.50;92.70;;;;;;6193201;23;20422;-81
2022/05/25 09:29:25;;;;;;;11.80;11.10;;;21.50;92.60;;;;;;6193808;23;20402;-81
2022/05/25 09:31:59;;;;;;;12.53;11.83;;;21.50;92.90;;;;;;6196814;23;20414;-82
2022/05/25 09:34:38;;;;;;;13.60;12.80;;;21.50;92.70;;;;;;6199680;23;20414;-82
2022/05/25 09:37:13;;;;;;;10.30;9.70;;;21.60;92.10;;;;;;6199871;23;20427;-82
2022/05/25 09:39:45;;;;;;;12.23;11.53;;;21.50;92.10;;;;;;6198431;23;20501;-81
2022/05/25 09:42:19;;;;;;;13.77;12.97;;;21.50;91.80;;;;;;6234760;23;20437;-81
2022/05/25 09:44:52;;;;;;;12.07;11.33;;;21.40;91.50;;;;;;6197662;23;20411;-81
2022/05/25 09:47:25;;;;;;;13.07;12.00;;;21.20;91.30;;;;;;6197440;23;20797;-81
2022/05/25 09:49:57;;;;;;;14.43;13.63;;;21.20;91.30;;;;;;6197489;23;20429;-81
2022/05/25 09:52:35;;;;;;;12.03;11.23;;;21.10;91.30;;;;;;6200104;23;20463;-81
2022/05/25 09:55:10;;;;;;;13.67;12.93;;;21.10;91.40;;;;;;6227712;23;20424;-81
2022/05/25 09:57:41;;;;;;;13.50;12.60;;;21.10;91.40;;;;;;6198762;23;20406;-81
2022/05/25 10:00:16;;;;;;;12.97;12.17;;;21.10;91.30;;;;;;6198713;23;20427;-81
2022/05/25 10:02:51;;;;;;;13.60;12.50;;;21.20;91.40;;;;;;6197189;23;20499;-81
2022/05/25 10:05:23;;;;;;;13.30;12.43;;;21.20;91.40;;;;;;6198195;23;20445;-81
2022/05/25 10:07:56;;;;;;;14.00;13.10;;;21.20;91.30;;;;;;6235529;23;20382;-81
2022/05/25 10:10:30;;;;;;;12.87;12.17;;;21.10;91.10;;;;;;6235801;23;20437;-80
2022/05/25 10:13:01;;;;;;;12.80;12.10;;;21.20;91.30;;;;;;6198458;23;20492;-82
2022/05/25 10:15:34;;;;;;;12.30;11.17;;;21.30;91.40;;;;;;6201655;23;20417;-81
2022/05/25 10:18:04;;;;;;;12.90;12.00;;;21.40;91.30;;;;;;6197389;23;20493;-81
2022/05/25 10:20:44;;;;;;;12.47;11.67;;;21.50;91.00;;;;;;6196931;23;20473;-80
2022/05/25 10:23:21;;;;;;;13.27;12.57;;;21.50;90.60;;;;;;6233680;23;20425;-81
2022/05/25 10:25:52;;;;;;;12.93;12.13;;;21.50;90.50;;;;;;6196106;23;20488;-80
2022/05/25 10:28:31;;;;;;;13.90;12.97;;;21.50;90.80;;;;;;6196971;23;20425;-80
2022/05/25 10:36:56;;;;;;;13.87;13.07;;;21.60;90.50;;;;;;6136887;23;20421;-81
2022/05/25 10:39:35;;;;;;;15.10;14.20;;;21.50;90.20;;;;;;6196547;23;20431;-81
2022/05/25 10:42:15;;;;;;;15.00;14.23;;;21.50;89.70;;;;;;6232554;23;20383;-81
2022/05/25 10:44:53;;;;;;;14.87;14.07;;;21.40;89.40;;;;;;6196988;23;20473;-81
2022/05/25 10:47:39;;;;;;;15.73;14.93;;;21.30;89.20;;;;;;6197518;23;20416;-81
2022/05/25 10:50:14;;;;;;;16.83;16.03;;;21.30;89.40;;;;;;6197411;23;20403;-81
2022/05/25 10:52:48;;;;;;;16.00;15.00;;;21.30;89.70;;;;;;6195553;23;20432;-81
2022/05/25 10:55:18;;;;;;;14.17;13.40;;;21.30;89.70;;;;;;6195725;23;20761;-81
2022/05/25 10:58:19;;;;;;;14.67;13.87;;;21.40;90.00;;;;;;6195494;23;20777;-81
2022/05/25 11:01:11;;;;;;;14.07;13.27;;;21.40;89.70;;;;;;6232968;23;20455;-80
2022/05/25 11:04:09;;;;;;;15.10;14.20;;;21.50;89.80;;;;;;6195335;23;20434;-81
2022/05/25 11:07:00;;;;;;;15.20;14.40;;;21.50;89.40;;;;;;6232090;23;20407;-80
2022/05/25 11:09:43;;;;;;;15.47;14.53;;;21.60;89.10;;;;;;6219664;23;20509;-79
2022/05/25 11:12:24;;;;;;;14.40;13.70;;;21.60;88.70;;;;;;6193710;23;20843;-80
2022/05/25 11:15:02;;;;;;;17.27;16.37;;;21.50;88.70;;;;;;6193924;23;20797;-80
2022/05/25 11:17:45;;;;;;;13.77;12.90;;;21.50;88.70;;;;;;6194387;23;20865;-80
2022/05/25 11:20:21;;;;;;;14.80;14.00;;;21.60;88.90;;;;;;6231938;23;20415;-80
2022/05/25 11:23:23;;;;;;;16.60;15.70;;;21.60;88.80;;;;;;6194417;23;20434;-81
2022/05/25 11:26:19;;;;;;;14.67;13.87;;;21.60;88.60;;;;;;6193700;23;20418;-81
2022/05/25 11:29:22;;;;;;;15.73;14.93;;;21.60;88.90;;;;;;6194274;23;20402;-81
2022/05/25 11:32:00;;;;;;;14.67;13.83;;;21.60;88.50;;;;;;6231485;23;20382;-81
2022/05/25 11:34:45;;;;;;;17.47;16.47;;;21.60;88.10;;;;;;6194514;23;20395;-81
2022/05/25 11:37:40;;;;;;;14.23;13.53;;;21.60;88.10;;;;;;6194018;23;20720;-80
2022/05/25 11:40:32;;;;;;;16.30;15.50;;;21.60;88.00;;;;;;6229841;23;20446;-80
2022/05/25 11:43:27;;;;;;;16.70;15.90;;;21.60;88.00;;;;;;6192634;23;20993;-80
2022/05/25 11:46:05;;;;;;;15.93;15.13;;;21.50;87.10;;;;;;6193573;23;20411;-80
2022/05/25 11:49:20;;;;;;;16.40;15.53;;;21.50;87.60;;;;;;6194425;23;20406;-81
2022/05/25 11:52:00;;;;;;;17.60;16.70;;;21.40;87.60;;;;;;6220046;23;20415;-79
2022/05/25 11:54:44;;;;;;;15.83;15.00;;;21.50;87.80;;;;;;6192626;23;20497;-80
2022/05/25 11:57:20;;;;;;;15.40;14.60;;;21.40;87.40;;;;;;6229111;23;20411;-80
2022/05/25 12:00:09;;;;;;;15.97;15.17;;;21.40;87.20;;;;;;6193871;23;20435;-79
2022/05/25 12:03:06;;;;;;;17.03;16.17;;;21.30;87.00;;;;;;6229218;23;20414;-80
2022/05/25 12:05:47;;;;;;;16.07;15.27;;;21.30;87.20;;;;;;6192708;23;20858;-80
2022/05/25 12:08:32;;;;;;;15.43;14.63;;;21.50;87.50;;;;;;6229535;23;20382;-80
2022/05/25 12:11:08;;;;;;;16.23;15.43;;;21.50;87.00;;;;;;6231679;23;20415;-80
2022/05/25 12:13:43;;;;;;;16.50;15.70;;;21.60;86.70;;;;;;6230822;23;20501;-80
2022/05/25 12:16:17;;;;;;;17.03;16.13;;;21.60;86.50;;;;;;6229929;23;20410;-80
2022/05/25 12:18:56;;;;;;;16.93;16.07;;;21.60;86.40;;;;;;6193179;23;20437;-79
2022/05/25 12:21:28;;;;;;;16.70;15.90;;;21.60;86.10;;;;;;6194728;23;20518;-81
2022/05/25 12:24:05;;;;;;;16.40;15.50;;;21.50;86.10;;;;;;6194817;23;20438;-80
2022/05/25 12:26:37;;;;;;;15.60;14.80;;;21.40;86.00;;;;;;6192541;23;20509;-80
2022/05/25 12:29:15;;;;;;;15.27;14.43;;;21.30;85.90;;;;;;6193217;23;20737;-80
2022/05/25 12:31:50;;;;;;;15.93;15.13;;;21.30;85.90;;;;;;6192684;23;20742;-80
2022/05/25 12:34:23;;;;;;;15.23;14.27;;;21.30;85.90;;;;;;6192492;23;20485;-81
2022/05/25 12:36:52;;;;;;;15.90;15.00;;;21.40;86.10;;;;;;6193188;23;20414;-81
2022/05/25 12:39:56;;;;;;;15.67;14.87;;;21.50;86.10;;;;;;6220465;23;20430;-81
2022/05/25 12:42:42;;;;;;;15.90;15.03;;;21.60;86.20;;;;;;6211664;23;20480;-81
2022/05/25 12:48:40;;;;;;;15.53;14.73;;;21.80;85.70;;;;;;6177111;23;20742;-82
2022/05/25 12:51:12;;;;;;;16.47;15.67;;;21.70;85.50;;;;;;6198172;23;20403;-81
2022/05/25 12:53:41;;;;;;;16.63;15.83;;;21.70;85.20;;;;;;6195168;23;20949;-81
2022/05/25 12:56:15;;;;;;;17.80;16.90;;;21.70;85.30;;;;;;6194893;23;20729;-81
2022/05/25 12:58:54;;;;;;;15.80;15.00;;;21.70;86.10;;;;;;6195446;23;20406;-81
2022/05/25 13:01:37;;;;;;;16.20;15.30;;;21.70;85.50;;;;;;6193966;23;20434;-81
2022/05/25 13:04:42;;;;;;;19.13;18.13;;;21.80;85.80;;;;;;6220590;23;20430;-81
2022/05/25 13:07:37;;;;;;;17.23;16.33;;;21.90;85.80;;;;;;6194598;23;20480;-81
2022/05/25 13:10:44;;;;;;;15.80;15.00;;;22.00;86.00;;;;;;6195560;23;20411;-81
2022/05/25 13:13:25;;;;;;;17.13;16.07;;;21.90;85.80;;;;;;6161679;23;20792;-81
2022/05/25 13:15:54;;;;;;;15.87;15.07;;;21.80;85.60;;;;;;6194664;23;20446;-81
2022/05/25 13:18:45;;;;;;;14.77;14.00;;;21.70;85.60;;;;;;6231857;23;20394;-81
2022/05/25 13:21:30;;;;;;;16.67;15.90;;;21.70;84.80;;;;;;6195932;23;20469;-81